Nova Brasilandia d'Oeste, Brazil
Current Conditions -  °F | °C
As of 11:00 PM on Wednesday 26 Nov 2014 (Local Time) from SBVH Reporting Station
Thunderstorm Thunderstorm  
Wind Chill: 72°   Ceiling: 1500
Heat Index: 72°   Visibility: 6mi
Dew Point: 72°   Wind: 3mph
Humidity: 100%   Direction: 290°WNW
Pressure: NA   Gusts: NA
Location:  11.72°S, 62.32°W
Report Text: SBVH 270300Z 29003KT 9999 -TSRA BKN015 FEW020CB SCT080 22/22 Q1014
Loading
Personal Weather Stations






























Interactive Weather Map New forecast layout! Learn more

10-Day Weather Forecast

Advertisements
Track Severe Weather on mobile